DW8458 South Croxton UK current weather conditions

sailwx.info

Wind from 196 at 6 knots gusting 10

Air temperature 15.0° C
Dewpoint 9.4° C

Last reported at 2019-Jun-20 11:02 UTC.
Time now 2019-Jun-20 11:43 UTC

Location: N 52°41' W 000°59'.
View on Google Maps.

See reports from other nearby stations

  
Tides and Currents Weather Stations Pressure Air Temp Water Temp Dewpoint Dewpoint Depression Visibility Wind Speed Wind Dir Waves Ship Positions
date/time (UTC)wind fromknots sea level pressurealtimeterstation pressurevisibilityair tempwater tempwave heightnotes
2019-Jun-20 11:02 196 6 gusting 10 15.0
2019-Jun-20 10:46 249 4 gusting 8 14.4
2019-Jun-20 10:31 278 3 gusting 8 13.9
2019-Jun-20 10:17 268 2 gusting 8 15.0
2019-Jun-20 10:02 233 3 gusting 9 15.6
2019-Jun-20 09:46 206 4 gusting 11 16.1
2019-Jun-20 09:31 247 3 gusting 6 15.6
2019-Jun-20 09:16 339 2 gusting 7 16.1
2019-Jun-20 09:00 299 1 gusting 8 15.6
2019-Jun-20 08:45 207 4 gusting 12 15.0
2019-Jun-20 08:30 260 3 gusting 12 15.0
2019-Jun-20 08:16 182 3 gusting 9 15.0
2019-Jun-20 08:02 284 3 gusting 10 14.4
2019-Jun-20 07:46 204 2 gusting 6 14.4
2019-Jun-20 07:30 191 2 gusting 7 13.3
2019-Jun-20 07:15 200 3 gusting 7 13.3
2019-Jun-20 07:00 236 3 gusting 6 12.8
2019-Jun-20 06:45 198 3 gusting 7 12.8
2019-Jun-20 06:30 199 3 gusting 7 12.2
2019-Jun-20 06:15 233 3 gusting 8 11.7
2019-Jun-20 06:00 203 2 gusting 7 11.1
2019-Jun-20 05:45 208 4 gusting 6 10.6
2019-Jun-20 05:30 204 2 gusting 6 10.0
2019-Jun-20 05:15 213 0 gusting 3 9.4
2019-Jun-20 04:47 222 8.9
2019-Jun-20 04:31 222 8.9
2019-Jun-20 04:16 222 8.9
2019-Jun-20 04:01 222 9.4
2019-Jun-20 03:46 224 1 gusting 6 9.4
2019-Jun-20 03:31 226 1 gusting 4 9.4
2019-Jun-20 03:16 225 0 gusting 3 10.0
2019-Jun-20 03:01 225 1 gusting 4 10.0
2019-Jun-20 02:46 237 0 gusting 3 10.0
2019-Jun-20 02:31 237 0 gusting 2 10.6
2019-Jun-20 02:16 237 10.6
2019-Jun-20 02:00 237 10.6
2019-Jun-20 01:46 237 11.1
2019-Jun-20 01:31 237 11.1
2019-Jun-20 01:16 237 11.7
2019-Jun-20 01:00 237 12.2
2019-Jun-20 00:45 246 12.2
2019-Jun-20 00:30 275 12.2
2019-Jun-20 00:16 275 12.8
2019-Jun-20 00:01 275 12.8
2019-Jun-19 23:45 275 12.8
2019-Jun-19 23:30 275 12.8
2019-Jun-19 23:16 275 12.8
2019-Jun-19 23:00 275 12.8
2019-Jun-19 22:45 275 12.8
2019-Jun-19 22:30 275 12.8
2019-Jun-19 22:15 275 12.8
2019-Jun-19 22:00 275 12.8
2019-Jun-19 21:45 275 12.8
2019-Jun-19 21:31 275 13.3
2019-Jun-19 21:15 275 13.3
2019-Jun-19 21:00 275 13.9
2019-Jun-19 20:45 276 0 gusting 3 14.4
2019-Jun-19 20:31 280 0 gusting 2 14.4
2019-Jun-19 20:15 268 0 gusting 4 15.0
2019-Jun-19 20:00 276 1 gusting 5 15.6
2019-Jun-19 19:45 268 1 gusting 5 16.1
2019-Jun-19 19:30 263 0 gusting 4 16.7
2019-Jun-19 19:15 231 1 gusting 4 16.7
2019-Jun-19 19:00 231 1 gusting 3 17.2
2019-Jun-19 18:45 230 1 gusting 3 17.2
2019-Jun-19 18:30 229 0 gusting 4 17.2
2019-Jun-19 18:15 260 17.2
2019-Jun-19 18:00 266 0 gusting 3 17.2
2019-Jun-19 17:45 239 0 gusting 3 17.8
2019-Jun-19 17:30 256 1 gusting 4 17.8
2019-Jun-19 17:15 335 18.3
2019-Jun-19 17:00 324 0 gusting 1 18.9
2019-Jun-19 16:45 360 1 gusting 3 18.9
2019-Jun-19 16:30 004 1 gusting 4 18.9
2019-Jun-19 16:15 356 0 gusting 5 18.9
2019-Jun-19 16:00 343 2 gusting 7 18.3
2019-Jun-19 15:45 001 2 gusting 7 18.3
2019-Jun-19 15:30 293 1 gusting 6 18.9
2019-Jun-19 15:15 238 0 gusting 4 18.9
2019-Jun-19 15:00 297 0 gusting 3 18.3
2019-Jun-19 14:45 290 1 gusting 6 18.9
2019-Jun-19 14:30 239 1 gusting 3 18.9
2019-Jun-19 14:15 289 1 gusting 4 18.3
2019-Jun-19 14:00 248 0 gusting 4 17.8
2019-Jun-19 13:45 262 1 gusting 4 18.3
2019-Jun-19 13:32 281 0 gusting 4 18.9
2019-Jun-19 13:16 230 1 gusting 4 18.3
2019-Jun-19 13:02 264 1 gusting 3 18.3
2019-Jun-19 12:46 304 1 gusting 4 17.8
2019-Jun-19 12:32 254 0 gusting 2 17.2
2019-Jun-19 12:17 265 0 gusting 6 17.2
2019-Jun-19 12:01 251 0 gusting 5 17.2
2019-Jun-19 11:47 301 0 gusting 2 16.7
2019-Jun-19 11:31 235 0 gusting 4 16.1
2019-Jun-19 11:16 272 1 gusting 5 15.6
2019-Jun-19 11:01 266 1 gusting 4 15.6
2019-Jun-19 10:46 273 15.6
2019-Jun-19 10:32 282 1 gusting 4 15.0
2019-Jun-19 10:16 256 0 gusting 5 15.0
2019-Jun-19 10:01 273 1 gusting 6 14.4
2019-Jun-19 09:46 278 1 gusting 5 15.0
2019-Jun-19 09:31 289 0 gusting 3 15.0
2019-Jun-19 09:15 301 0 gusting 4 15.0
2019-Jun-19 09:01 295 15.0
2019-Jun-19 08:45 256 1 gusting 5 15.0
2019-Jun-19 08:30 291 15.0
2019-Jun-19 08:15 291 0 gusting 3 15.0
2019-Jun-19 08:00 287 14.4
2019-Jun-19 07:45 338 14.4
2019-Jun-19 07:30 338 14.4
2019-Jun-19 07:16 007 14.4
2019-Jun-19 07:01 007 14.4
2019-Jun-19 06:45 006 14.4
2019-Jun-19 06:30 007 14.4
2019-Jun-19 06:15 007 13.9
2019-Jun-19 06:00 033 13.9
2019-Jun-19 05:45 053 13.9
2019-Jun-19 05:30 049 13.9
2019-Jun-19 05:15 049 13.9
2019-Jun-19 05:00 062 13.9
2019-Jun-19 04:45 068 13.3
2019-Jun-19 04:30 068 13.3
2019-Jun-19 04:15 068 13.3
2019-Jun-19 04:00 068 13.3
2019-Jun-19 03:45 068 13.3
2019-Jun-19 03:30 068 13.3
2019-Jun-19 03:15 068 13.3
2019-Jun-19 03:00 068 13.3
2019-Jun-19 02:48 068 13.3
2019-Jun-19 02:32 068 13.3
2019-Jun-19 02:17 068 13.3
2019-Jun-19 02:02 068 13.3
2019-Jun-19 01:46 068 12.8
2019-Jun-19 01:31 068 12.8
2019-Jun-19 01:20 069 12.8
2019-Jun-19 01:01 069 12.8
2019-Jun-19 00:46 069 12.8
2019-Jun-19 00:31 069 12.8
2019-Jun-19 00:17 070 12.8
2019-Jun-19 00:01 069 12.8
2019-Jun-18 23:46 070 13.3
2019-Jun-18 23:31 068 12.8
2019-Jun-18 23:16 068 13.3
2019-Jun-18 23:01 068 13.3
2019-Jun-18 22:46 068 13.3
2019-Jun-18 22:31 070 0 gusting 4 13.3
2019-Jun-18 22:16 151 13.3
2019-Jun-18 22:01 151 0 gusting 2 13.9
2019-Jun-18 21:45 151 0 gusting 1 13.9
2019-Jun-18 21:31 151 13.9
2019-Jun-18 21:01 151 13.9
2019-Jun-18 20:45 151 13.9
2019-Jun-18 20:30 151 13.9
2019-Jun-18 20:16 151 13.9
2019-Jun-18 20:00 151 13.9
2019-Jun-18 19:46 151 13.9
2019-Jun-18 19:30 151 14.4
2019-Jun-18 19:16 152 14.4
2019-Jun-18 19:01 152 14.4
2019-Jun-18 18:46 152 14.4
2019-Jun-18 18:30 152 14.4
2019-Jun-18 18:16 152 0 gusting 3 14.4
2019-Jun-18 18:00 135 1 gusting 3 14.4
2019-Jun-18 17:45 123 0 gusting 1 15.0
2019-Jun-18 17:30 123 0 gusting 2 15.0
2019-Jun-18 17:00 123 15.6
2019-Jun-18 16:45 123 15.6
2019-Jun-18 16:30 123 0 gusting 2 16.1
2019-Jun-18 16:15 123 0 gusting 2 16.7
2019-Jun-18 16:00 122 0 gusting 1 16.7
2019-Jun-18 15:45 122 1 gusting 4 16.1
2019-Jun-18 15:30 166 2 gusting 3 16.7
2019-Jun-18 15:15 160 3 gusting 5 16.7
2019-Jun-18 15:00 152 1 gusting 4 16.7
2019-Jun-18 14:45 161 1 gusting 6 17.2
2019-Jun-18 14:30 158 2 gusting 5 16.7
2019-Jun-18 14:15 131 4 gusting 6 16.7
2019-Jun-18 14:00 166 3 gusting 6 16.7
2019-Jun-18 13:47 181 2 gusting 5 17.2
2019-Jun-18 13:31 147 2 gusting 4 17.2
2019-Jun-18 13:17 214 2 gusting 6 17.2
2019-Jun-18 13:02 212 2 gusting 6 17.2
2019-Jun-18 12:47 189 2 gusting 7 17.2
2019-Jun-18 12:31 160 3 gusting 7 17.2
2019-Jun-18 12:17 184 4 gusting 8 17.2
2019-Jun-18 12:01 188 2 gusting 7 17.2
2019-Jun-18 11:46 169 4 gusting 8 16.7
2019-Jun-18 11:31 179 2 gusting 6 16.7
2019-Jun-18 11:16 189 4 gusting 6 16.1
2019-Jun-18 11:02 209 2 gusting 6 16.1